createdAt,value
2019-01-26T00:02:05.858Z,-2.38
2019-01-26T00:04:40.387Z,-2.38
2019-01-26T00:07:11.885Z,-2.13
2019-01-26T00:09:44.690Z,-2.19
2019-01-26T00:12:18.593Z,-2.14
2019-01-26T00:14:50.210Z,-1.98
2019-01-26T00:17:25.434Z,-2.09
2019-01-26T00:19:57.852Z,-2.08
2019-01-26T00:22:28.615Z,-2.10
2019-01-26T00:25:00.389Z,-2.04
2019-01-26T00:27:32.163Z,-1.98
2019-01-26T00:30:08.595Z,-2.02
2019-01-26T00:32:41.257Z,-2.01
2019-01-26T00:35:12.666Z,-1.89
2019-01-26T00:37:43.886Z,-1.95
2019-01-26T00:40:18.108Z,-1.71
2019-01-26T00:42:52.587Z,-1.87
2019-01-26T00:45:24.605Z,-1.90
2019-01-26T00:47:59.812Z,-1.86
2019-01-26T00:50:33.070Z,-1.91
2019-01-26T00:53:07.461Z,-1.76
2019-01-26T00:55:40.460Z,-1.64
2019-01-26T00:58:11.622Z,-1.69
2019-01-26T01:00:44.400Z,-1.74
2019-01-26T01:03:20.132Z,-1.59
2019-01-26T01:05:52.051Z,-1.58
2019-01-26T01:08:25.433Z,-1.60
2019-01-26T01:10:57.662Z,-1.57
2019-01-26T01:13:29.034Z,-1.51
2019-01-26T01:16:02.723Z,-1.45
2019-01-26T01:18:33.595Z,-1.44
2019-01-26T01:21:06.746Z,-1.57
2019-01-26T01:23:40.539Z,-1.54
2019-01-26T01:26:14.508Z,-1.49
2019-01-26T01:28:50.276Z,-1.46
2019-01-26T01:31:56.455Z,-1.43
2019-01-26T01:34:29.134Z,-1.48
2019-01-26T01:37:01.361Z,-1.40
2019-01-26T01:39:32.625Z,-1.33
2019-01-26T01:42:06.962Z,-1.39
2019-01-26T01:44:41.374Z,-1.28
2019-01-26T01:47:16.104Z,-1.29
2019-01-26T01:49:49.342Z,-1.21
2019-01-26T01:52:21.426Z,-1.22
2019-01-26T01:54:53.403Z,-1.18
2019-01-26T01:57:27.344Z,-1.19
2019-01-26T01:59:58.774Z,-1.17
2019-01-26T02:02:29.954Z,-1.10
2019-01-26T02:05:02.778Z,-1.15
2019-01-26T02:07:35.033Z,-1.00
2019-01-26T02:10:08.565Z,-1.03
2019-01-26T02:12:58.308Z,-0.92
2019-01-26T02:15:29.538Z,-0.85
2019-01-26T02:18:01.512Z,-0.89
2019-01-26T02:20:32.889Z,-0.86
2019-01-26T02:23:05.947Z,-0.81
2019-01-26T02:25:38.131Z,-0.86
2019-01-26T02:28:10.988Z,-0.80
2019-01-26T02:30:43.033Z,-0.66
2019-01-26T02:33:14.032Z,-0.75
2019-01-26T02:35:47.506Z,-0.71
2019-01-26T02:38:19.092Z,-0.61
2019-01-26T02:40:52.432Z,-0.71
2019-01-26T02:43:26.945Z,-0.66
2019-01-26T02:45:57.504Z,-0.63
2019-01-26T02:48:30.476Z,-0.63
2019-01-26T02:51:02.029Z,-0.63
2019-01-26T02:53:38.236Z,-0.48
2019-01-26T02:56:09.418Z,-0.45
2019-01-26T02:58:43.083Z,-0.47
2019-01-26T03:01:18.009Z,-0.46
2019-01-26T03:03:51.819Z,-0.46
2019-01-26T03:06:27.052Z,-0.47
2019-01-26T03:09:00.530Z,-0.39
2019-01-26T03:11:34.115Z,-0.33
2019-01-26T03:14:09.193Z,-0.27
2019-01-26T03:16:44.226Z,-0.28
2019-01-26T03:19:23.087Z,-0.20
2019-01-26T03:21:56.672Z,-0.12
2019-01-26T03:24:28.569Z,-0.06
2019-01-26T03:27:02.466Z,0.09
2019-01-26T03:29:36.668Z,0.19
2019-01-26T03:32:09.049Z,0.14
2019-01-26T03:34:43.929Z,0.19
2019-01-26T03:37:15.948Z,0.18
2019-01-26T03:39:47.425Z,0.20
2019-01-26T03:42:19.809Z,0.21
2019-01-26T03:44:54.920Z,0.23
2019-01-26T03:47:28.828Z,0.26
2019-01-26T03:50:03.512Z,0.39
2019-01-26T03:52:35.441Z,0.47
2019-01-26T03:55:11.287Z,0.41
2019-01-26T03:57:42.045Z,0.40
2019-01-26T04:00:15.655Z,0.46
2019-01-26T04:02:49.355Z,0.46
2019-01-26T04:05:23.567Z,0.38
2019-01-26T04:07:55.078Z,0.36
2019-01-26T04:10:28.289Z,0.34
2019-01-26T04:13:01.048Z,0.36
2019-01-26T04:15:34.181Z,0.34
2019-01-26T04:18:05.238Z,0.36
2019-01-26T04:20:36.138Z,0.35
2019-01-26T04:23:09.420Z,0.35
2019-01-26T04:25:45.221Z,0.34
2019-01-26T04:28:18.833Z,0.40
2019-01-26T04:30:51.309Z,0.46
2019-01-26T04:33:24.125Z,0.46
2019-01-26T04:35:57.224Z,0.60
2019-01-26T04:38:29.004Z,0.84
2019-01-26T04:41:01.897Z,0.89
2019-01-26T04:44:04.355Z,1.12
2019-01-26T04:46:37.796Z,1.15
2019-01-26T04:49:08.297Z,1.30
2019-01-26T04:51:42.956Z,1.29
2019-01-26T04:54:14.951Z,1.40
2019-01-26T04:56:48.021Z,1.55
2019-01-26T04:59:20.521Z,1.49
2019-01-26T05:01:53.922Z,1.67
2019-01-26T05:04:27.604Z,1.72
2019-01-26T05:07:01.394Z,1.67
2019-01-26T05:09:34.324Z,1.65
2019-01-26T05:12:08.905Z,1.68
2019-01-26T05:14:42.038Z,1.68
2019-01-26T05:17:16.005Z,1.73
2019-01-26T05:19:52.229Z,1.85
2019-01-26T05:22:25.941Z,1.83
2019-01-26T05:24:58.748Z,1.78
2019-01-26T05:27:32.409Z,1.74
2019-01-26T05:30:28.010Z,1.74
2019-01-26T05:32:59.994Z,1.64
2019-01-26T05:35:31.259Z,1.62
2019-01-26T05:38:04.432Z,1.62
2019-01-26T05:40:38.350Z,1.62
2019-01-26T05:43:10.601Z,1.78
2019-01-26T05:48:44.088Z,1.86
2019-01-26T05:51:50.807Z,1.99
2019-01-26T05:54:26.412Z,2.04
2019-01-26T05:57:01.314Z,2.06
2019-01-26T05:59:33.985Z,1.99
2019-01-26T06:02:07.480Z,2.02
2019-01-26T06:04:41.225Z,1.99
2019-01-26T06:07:14.667Z,2.06
2019-01-26T06:09:46.377Z,2.07
2019-01-26T06:12:19.259Z,2.16
2019-01-26T06:14:53.441Z,2.21
2019-01-26T06:17:27.579Z,2.26
2019-01-26T06:19:59.591Z,2.24
2019-01-26T06:22:35.371Z,2.14
2019-01-26T06:25:11.462Z,2.10
2019-01-26T06:27:46.683Z,2.32
2019-01-26T06:30:23.154Z,2.22
2019-01-26T06:33:02.551Z,2.16
2019-01-26T06:35:36.363Z,2.18
2019-01-26T06:38:10.144Z,2.20
2019-01-26T06:40:42.573Z,2.17
2019-01-26T06:43:14.891Z,2.24
2019-01-26T06:45:47.539Z,2.25
2019-01-26T06:48:28.593Z,2.19
2019-01-26T06:54:22.229Z,2.29
2019-01-26T06:56:55.596Z,2.27
2019-01-26T06:59:27.271Z,2.24
2019-01-26T07:02:00.419Z,2.27
2019-01-26T07:04:46.803Z,2.35
2019-01-26T07:07:19.110Z,2.36
2019-01-26T07:09:55.681Z,2.38
2019-01-26T07:12:29.584Z,2.39
2019-01-26T07:15:04.132Z,2.38
2019-01-26T07:17:36.825Z,2.43
2019-01-26T07:20:15.735Z,2.44
2019-01-26T07:22:47.267Z,2.55
2019-01-26T07:25:30.418Z,2.48
2019-01-26T07:28:04.644Z,2.45
2019-01-26T07:30:36.166Z,2.50
2019-01-26T07:33:07.899Z,2.45
2019-01-26T07:35:50.148Z,2.47
2019-01-26T07:38:23.938Z,2.48
2019-01-26T07:40:56.238Z,2.50
2019-01-26T07:43:30.900Z,2.49
2019-01-26T07:46:04.021Z,2.59
2019-01-26T07:48:35.994Z,2.59
2019-01-26T07:51:07.282Z,2.49
2019-01-26T07:53:40.471Z,2.57
2019-01-26T07:56:13.138Z,2.61
2019-01-26T07:58:48.841Z,2.56
2019-01-26T08:01:20.633Z,2.55
2019-01-26T08:03:51.743Z,2.64
2019-01-26T08:06:23.466Z,2.78
2019-01-26T08:08:54.022Z,2.69
2019-01-26T08:11:26.492Z,2.95
2019-01-26T08:13:59.669Z,2.80
2019-01-26T08:16:37.575Z,2.78
2019-01-26T08:19:09.226Z,2.78
2019-01-26T08:21:41.018Z,2.92
2019-01-26T08:24:14.348Z,2.85
2019-01-26T08:26:52.292Z,2.94
2019-01-26T08:29:28.061Z,2.96
2019-01-26T08:32:14.281Z,2.97
2019-01-26T08:34:46.150Z,3.01
2019-01-26T08:37:19.259Z,2.98
2019-01-26T08:39:53.854Z,2.98
2019-01-26T08:42:27.563Z,2.98
2019-01-26T08:45:00.634Z,2.95
2019-01-26T08:47:31.007Z,2.96
2019-01-26T08:50:02.087Z,2.98
2019-01-26T08:52:33.593Z,3.06
2019-01-26T08:55:04.655Z,3.01
2019-01-26T08:57:35.739Z,3.07
2019-01-26T09:00:13.704Z,3.01
2019-01-26T09:02:49.101Z,3.03
2019-01-26T09:05:21.128Z,3.02
2019-01-26T09:07:52.355Z,2.98
2019-01-26T09:10:25.452Z,2.96
2019-01-26T09:12:56.449Z,2.97
2019-01-26T09:15:27.278Z,3.01
2019-01-26T09:17:59.140Z,3.08
2019-01-26T09:20:29.654Z,3.12
2019-01-26T09:23:03.305Z,3.16
2019-01-26T09:25:33.666Z,3.18
2019-01-26T09:28:04.707Z,3.26
2019-01-26T09:30:36.609Z,3.30
2019-01-26T09:33:07.051Z,3.40
2019-01-26T09:35:47.837Z,3.44
2019-01-26T09:38:20.882Z,3.52
2019-01-26T09:40:55.209Z,3.58
2019-01-26T09:43:28.996Z,3.70
2019-01-26T09:46:01.475Z,3.79
2019-01-26T09:48:31.607Z,3.76
2019-01-26T09:51:02.109Z,3.64
2019-01-26T09:53:51.700Z,3.64
2019-01-26T09:56:25.111Z,3.67
2019-01-26T09:58:58.360Z,3.63
2019-01-26T10:01:31.979Z,3.66
2019-01-26T10:04:03.724Z,3.66
2019-01-26T10:06:35.690Z,3.65
2019-01-26T10:09:09.686Z,3.62
2019-01-26T10:11:56.642Z,3.72
2019-01-26T10:17:34.306Z,3.80
2019-01-26T10:20:09.178Z,3.78
2019-01-26T10:22:41.759Z,3.81
2019-01-26T10:25:18.123Z,3.85
2019-01-26T10:27:50.579Z,3.87
2019-01-26T10:30:30.901Z,3.92
2019-01-26T10:33:02.081Z,4.02
2019-01-26T10:35:49.101Z,4.04
2019-01-26T10:38:23.520Z,4.06
2019-01-26T10:40:59.601Z,4.17
2019-01-26T10:43:38.254Z,4.26
2019-01-26T10:46:10.302Z,4.24
2019-01-26T10:48:40.657Z,4.34
2019-01-26T10:51:12.619Z,4.33
2019-01-26T10:53:45.686Z,4.41
2019-01-26T10:56:18.907Z,4.40
2019-01-26T10:58:50.567Z,4.37
2019-01-26T11:01:26.238Z,4.40
2019-01-26T11:04:02.532Z,4.37
2019-01-26T11:06:35.800Z,4.31
2019-01-26T11:09:09.377Z,4.35
2019-01-26T11:11:45.487Z,4.39
2019-01-26T11:14:18.417Z,4.34
2019-01-26T11:16:50.240Z,4.32
2019-01-26T11:19:22.072Z,4.24
2019-01-26T11:21:53.370Z,4.22
2019-01-26T11:24:29.922Z,4.23
2019-01-26T11:27:00.561Z,4.21
2019-01-26T11:29:31.503Z,4.29
2019-01-26T11:32:03.760Z,4.27
2019-01-26T11:34:38.744Z,4.27
2019-01-26T11:37:10.700Z,4.28
2019-01-26T11:39:45.700Z,4.25
2019-01-26T11:42:28.115Z,4.28
2019-01-26T11:45:06.485Z,4.21
2019-01-26T11:47:39.950Z,4.18
2019-01-26T11:50:16.294Z,4.23
2019-01-26T11:52:46.809Z,4.22
2019-01-26T11:55:32.174Z,4.24
2019-01-26T11:58:04.993Z,4.22
2019-01-26T12:00:59.494Z,4.29
2019-01-26T12:03:31.962Z,4.25
2019-01-26T12:06:09.952Z,4.29
2019-01-26T12:08:43.495Z,4.28
2019-01-26T12:11:25.491Z,4.28
2019-01-26T12:14:00.557Z,4.39
2019-01-26T12:16:33.511Z,4.39
2019-01-26T12:19:06.020Z,4.50
2019-01-26T12:21:38.654Z,4.43
2019-01-26T12:24:13.421Z,4.45
2019-01-26T12:26:44.200Z,4.61
2019-01-26T12:29:15.467Z,4.46
2019-01-26T12:31:58.201Z,4.48
2019-01-26T12:34:29.559Z,4.42
2019-01-26T12:37:02.382Z,4.56
2019-01-26T12:39:37.733Z,4.51
2019-01-26T12:42:34.223Z,4.55
2019-01-26T12:45:10.060Z,4.47
2019-01-26T12:47:43.093Z,4.49
2019-01-26T12:50:14.672Z,4.51
2019-01-26T12:52:47.450Z,4.49
2019-01-26T12:55:20.071Z,4.48
2019-01-26T12:57:53.372Z,4.48
2019-01-26T13:00:28.307Z,4.51
2019-01-26T13:03:01.176Z,4.44
2019-01-26T13:05:32.850Z,4.45
2019-01-26T13:08:05.693Z,4.41
2019-01-26T13:10:43.447Z,4.40
2019-01-26T13:13:20.062Z,4.39
2019-01-26T13:15:51.120Z,4.41
2019-01-26T13:18:25.683Z,4.37
2019-01-26T13:20:57.631Z,4.37
2019-01-26T13:23:31.821Z,4.34
2019-01-26T13:26:06.655Z,4.41
2019-01-26T13:28:38.896Z,4.34
2019-01-26T13:31:10.156Z,4.34
2019-01-26T13:33:45.353Z,4.32
2019-01-26T13:36:17.035Z,4.41
2019-01-26T13:38:52.367Z,4.33
2019-01-26T13:41:26.637Z,4.35
2019-01-26T13:43:58.115Z,4.34
2019-01-26T13:46:30.296Z,4.38
2019-01-26T13:49:03.768Z,4.23
2019-01-26T13:51:37.577Z,4.36
2019-01-26T13:54:10.482Z,4.31
2019-01-26T13:56:44.064Z,4.27
2019-01-26T13:59:20.290Z,4.34
2019-01-26T14:02:06.527Z,4.41
2019-01-26T14:04:38.821Z,4.33
2019-01-26T14:07:11.362Z,4.32
2019-01-26T14:09:43.111Z,4.39
2019-01-26T14:12:14.236Z,4.32
2019-01-26T14:14:48.667Z,4.50
2019-01-26T14:17:21.566Z,4.35
2019-01-26T14:19:55.506Z,4.36
2019-01-26T14:22:28.773Z,4.30
2019-01-26T14:24:59.345Z,4.13
2019-01-26T14:27:32.349Z,4.11
2019-01-26T14:30:09.447Z,4.10
2019-01-26T14:32:40.281Z,4.06
2019-01-26T14:35:12.386Z,4.00
2019-01-26T14:37:43.621Z,4.19
2019-01-26T14:40:20.172Z,4.01
2019-01-26T14:42:54.338Z,3.92
2019-01-26T14:45:29.403Z,3.85
2019-01-26T14:48:03.961Z,3.93
2019-01-26T14:50:36.543Z,3.99
2019-01-26T14:53:10.967Z,3.97
2019-01-26T14:55:42.523Z,3.90
2019-01-26T14:58:13.954Z,3.92
2019-01-26T15:00:46.587Z,3.90
2019-01-26T15:03:20.198Z,3.92
2019-01-26T15:05:53.841Z,3.78
2019-01-26T15:08:31.810Z,3.75
2019-01-26T15:11:06.729Z,3.95
2019-01-26T15:13:39.602Z,3.90
2019-01-26T15:16:23.701Z,3.89
2019-01-26T15:18:55.430Z,3.82
2019-01-26T15:21:37.392Z,3.84
2019-01-26T15:24:11.470Z,3.77
2019-01-26T15:26:44.861Z,3.74
2019-01-26T15:29:18.112Z,3.70
2019-01-26T15:31:52.733Z,3.72
2019-01-26T15:34:24.643Z,3.60
2019-01-26T15:36:58.438Z,3.70
2019-01-26T15:39:35.906Z,3.62
2019-01-26T15:42:09.718Z,3.60
2019-01-26T15:44:43.614Z,3.55
2019-01-26T15:47:22.457Z,3.57
2019-01-26T15:50:05.570Z,3.71
2019-01-26T15:52:36.300Z,3.59
2019-01-26T15:55:13.575Z,3.62
2019-01-26T15:57:44.539Z,3.60
2019-01-26T16:00:27.468Z,3.45
2019-01-26T16:02:59.660Z,3.55
2019-01-26T16:05:31.566Z,3.53
2019-01-26T16:08:05.272Z,3.46
2019-01-26T16:10:58.177Z,3.54
2019-01-26T16:13:34.934Z,3.44
2019-01-26T16:16:08.354Z,3.49
2019-01-26T16:18:44.700Z,3.41
2019-01-26T16:21:17.147Z,3.40
2019-01-26T16:23:48.848Z,3.45
2019-01-26T16:26:23.069Z,3.38
2019-01-26T16:28:53.520Z,3.68
2019-01-26T16:31:25.848Z,3.50
2019-01-26T16:33:57.107Z,3.48
2019-01-26T16:36:30.138Z,3.36
2019-01-26T16:39:01.742Z,3.37
2019-01-26T16:41:32.740Z,3.36
2019-01-26T16:44:06.270Z,3.52
2019-01-26T16:46:38.798Z,3.48
2019-01-26T16:49:11.379Z,3.38
2019-01-26T16:51:43.214Z,3.31
2019-01-26T16:54:15.541Z,3.35
2019-01-26T16:56:45.884Z,3.32
2019-01-26T16:59:16.327Z,3.45
2019-01-26T17:01:47.512Z,3.39
2019-01-26T17:04:21.621Z,3.40
2019-01-26T17:06:53.600Z,3.47
2019-01-26T17:09:25.531Z,3.48
2019-01-26T17:11:57.254Z,3.48
2019-01-26T17:14:30.154Z,3.46
2019-01-26T17:17:02.686Z,3.47
2019-01-26T17:19:34.705Z,3.44
2019-01-26T17:22:05.792Z,3.42
2019-01-26T17:24:36.211Z,3.40
2019-01-26T17:27:08.843Z,3.32
2019-01-26T17:29:39.932Z,3.37
2019-01-26T17:32:11.941Z,3.24
2019-01-26T17:34:44.565Z,3.46
2019-01-26T17:37:16.643Z,3.44
2019-01-26T17:39:48.495Z,3.48
2019-01-26T17:42:22.951Z,3.65
2019-01-26T17:44:55.021Z,3.64
2019-01-26T17:47:27.074Z,3.56
2019-01-26T17:49:59.865Z,3.53
2019-01-26T17:52:33.038Z,3.43
2019-01-26T17:55:09.863Z,3.45
2019-01-26T17:57:41.791Z,3.46
2019-01-26T18:00:22.755Z,3.49
2019-01-26T18:02:56.140Z,3.61
2019-01-26T18:05:27.020Z,3.57
2019-01-26T18:08:02.668Z,3.42
2019-01-26T18:10:33.192Z,3.35
2019-01-26T18:13:04.022Z,3.23
2019-01-26T18:15:35.366Z,3.34
2019-01-26T18:18:07.953Z,3.32
2019-01-26T18:20:39.511Z,3.31
2019-01-26T18:23:11.939Z,3.30
2019-01-26T18:25:55.998Z,3.44
2019-01-26T18:31:48.762Z,3.41
2019-01-26T18:34:24.778Z,3.45
2019-01-26T18:37:09.908Z,3.32
2019-01-26T18:39:45.400Z,3.28
2019-01-26T18:42:45.792Z,3.37
2019-01-26T18:45:29.289Z,3.39
2019-01-26T18:48:02.503Z,3.37
2019-01-26T18:50:42.036Z,3.45
2019-01-26T18:53:16.397Z,3.35
2019-01-26T18:55:53.115Z,3.40
2019-01-26T18:58:25.258Z,3.44
2019-01-26T19:00:56.817Z,3.52
2019-01-26T19:03:37.936Z,3.48
2019-01-26T19:06:09.345Z,3.46
2019-01-26T19:08:42.071Z,3.47
2019-01-26T19:11:13.660Z,3.52
2019-01-26T19:13:46.278Z,3.60
2019-01-26T19:16:19.589Z,3.60
2019-01-26T19:18:50.732Z,3.48
2019-01-26T19:21:21.853Z,3.43
2019-01-26T19:23:54.748Z,3.55
2019-01-26T19:26:25.969Z,3.60
2019-01-26T19:28:58.166Z,3.63
2019-01-26T19:31:30.555Z,3.56
2019-01-26T19:34:03.141Z,3.56
2019-01-26T19:36:35.974Z,3.67
2019-01-26T19:39:09.144Z,3.59
2019-01-26T19:41:43.041Z,3.48
2019-01-26T19:44:15.213Z,3.54
2019-01-26T19:46:45.292Z,3.58
2019-01-26T19:49:16.225Z,3.52
2019-01-26T19:51:52.224Z,3.55
2019-01-26T19:54:25.642Z,3.67
2019-01-26T19:56:58.189Z,3.64
2019-01-26T19:59:28.875Z,3.57
2019-01-26T20:02:00.461Z,3.61
2019-01-26T20:04:33.999Z,3.55
2019-01-26T20:07:08.699Z,3.59
2019-01-26T20:09:41.591Z,3.67
2019-01-26T20:12:13.947Z,3.72
2019-01-26T20:14:48.157Z,3.55
2019-01-26T20:17:21.113Z,3.51
2019-01-26T20:19:52.323Z,3.57
2019-01-26T20:22:25.287Z,3.60
2019-01-26T20:24:58.942Z,3.61
2019-01-26T20:27:30.088Z,3.74
2019-01-26T20:30:04.696Z,3.65
2019-01-26T20:32:37.216Z,3.77
2019-01-26T20:35:11.488Z,3.82
2019-01-26T20:37:47.925Z,3.75
2019-01-26T20:40:21.037Z,3.78
2019-01-26T20:42:56.040Z,3.74
2019-01-26T20:45:31.335Z,3.81
2019-01-26T20:48:04.996Z,3.73
2019-01-26T20:50:38.940Z,3.79
2019-01-26T20:53:14.768Z,3.79
2019-01-26T20:55:47.212Z,3.86
2019-01-26T20:58:17.863Z,3.79
2019-01-26T21:00:48.405Z,3.80
2019-01-26T21:03:19.149Z,3.78
2019-01-26T21:05:49.913Z,3.81
2019-01-26T21:08:21.724Z,3.80
2019-01-26T21:10:52.777Z,3.82
2019-01-26T21:13:25.090Z,3.86
2019-01-26T21:15:55.157Z,3.84
2019-01-26T21:18:25.804Z,3.87
2019-01-26T21:20:57.903Z,3.99
2019-01-26T21:23:28.126Z,4.01
2019-01-26T21:25:59.423Z,4.08
2019-01-26T21:28:29.998Z,4.03
2019-01-26T21:31:02.262Z,4.24
2019-01-26T21:33:35.714Z,4.35
2019-01-26T21:36:09.934Z,4.39
2019-01-26T21:38:43.965Z,4.28
2019-01-26T21:41:21.153Z,4.47
2019-01-26T21:43:54.303Z,4.36
2019-01-26T21:46:27.650Z,4.44
2019-01-26T21:48:57.986Z,4.31
2019-01-26T21:51:31.071Z,4.41
2019-01-26T21:54:03.759Z,4.38
2019-01-26T21:56:35.282Z,4.42
2019-01-26T21:59:07.767Z,4.36
2019-01-26T22:01:44.790Z,4.35
2019-01-26T22:04:14.763Z,4.55
2019-01-26T22:06:48.637Z,4.55
2019-01-26T22:09:34.129Z,4.47
2019-01-26T22:12:04.549Z,4.46
2019-01-26T22:14:36.438Z,4.47
2019-01-26T22:17:07.811Z,4.41
2019-01-26T22:19:38.182Z,4.47
2019-01-26T22:24:52.212Z,4.49
2019-01-26T22:27:24.285Z,4.41
2019-01-26T22:29:58.778Z,4.30
2019-01-26T22:32:29.781Z,4.49
2019-01-26T22:35:01.544Z,4.48
2019-01-26T22:37:32.549Z,4.37
2019-01-26T22:40:02.787Z,4.41
2019-01-26T22:42:34.848Z,4.39
2019-01-26T22:45:10.159Z,4.61
2019-01-26T22:47:40.841Z,4.54
2019-01-26T22:50:14.129Z,4.53
2019-01-26T22:52:45.237Z,4.51
2019-01-26T22:55:19.974Z,4.51
2019-01-26T22:57:50.544Z,4.57
2019-01-26T23:00:43.438Z,4.65
2019-01-26T23:03:15.323Z,4.61
2019-01-26T23:05:58.482Z,4.68
2019-01-26T23:08:38.299Z,4.59
2019-01-26T23:11:15.760Z,4.82
2019-01-26T23:13:49.800Z,4.82
2019-01-26T23:16:51.849Z,4.61
2019-01-26T23:19:27.244Z,4.71
2019-01-26T23:22:06.233Z,4.78
2019-01-26T23:24:57.858Z,4.68
2019-01-26T23:27:55.769Z,4.68
2019-01-26T23:30:35.758Z,4.72
2019-01-26T23:33:06.638Z,4.75
2019-01-26T23:35:36.801Z,4.60
2019-01-26T23:38:07.628Z,4.52
2019-01-26T23:40:39.183Z,4.57
2019-01-26T23:43:13.531Z,4.54
2019-01-26T23:45:49.495Z,4.42
2019-01-26T23:48:24.205Z,4.53
2019-01-26T23:50:55.592Z,4.53
2019-01-26T23:53:26.504Z,4.58
2019-01-26T23:55:57.885Z,4.48
2019-01-26T23:58:28.601Z,4.62
